Nuevo Baztan, Spain
Current Conditions -  °F | °C
As of 9:00 AM on Tuesday 27 Jan 2015 (Local Time) from LETO Reporting Station
Clear Clear  
Wind Chill: -3°   Ceiling: Unl
Heat Index:   Visibility: 6mi
Dew Point: -1°   Wind: 9mph
Humidity: 87%   Direction: 30°NNE
Pressure: 30.39"   Gusts: NA
Location:  40.37°N, 3.24°W
Report Text: LETO 270800Z 03008KT CAVOK 01/M01 Q1029 NOSIG
Loading
Personal Weather Stations






























Interactive Weather Map New forecast layout! Learn more

10-Day Weather Forecast

Advertisements
Track Severe Weather on mobile